Paro, Bhutan
Current Conditions -  °F | °C
As of 10:50 AM on Thursday 23 Oct 2014 (Local Time) from VQPR Reporting Station
Few Clouds Few Clouds  
Wind Chill: 64°   Ceiling: Unl
Heat Index: 64°   Visibility: 6mi
Dew Point: 37°   Wind: 3mph
Humidity: 37%   Direction: 190°S
Pressure: 30.27"   Gusts: NA
Location:  27.51°N, 89.36°E
Report Text: VQPR 230450Z 19003KT 9999 FEW030 18/03 Q1025 NOSIG
Loading
Personal Weather Stations






























Interactive Weather Map
Tropical Storm Tracking
New forecast layout! Learn more

10-Day Weather Forecast

Advertisements
Track Severe Weather on mobile